Time;durP1;ratioP1;P1;durP2;ratioP2;P2;SDS_P1;SDS_P2;PMS_P1;PMS_P2;Temp;Humidity;BMP_temperature;BMP_pressure;BME280_temperature;BME280_humidity;BME280_pressure;Samples;Min_cycle;Max_cycle;Signal;HPM_P1;HPM_P2
2022/06/12 00:01:48;;;;;;;;;;;;;;;;;;;;;
2022/06/12 00:04:14;;;;;;;49.58;9.50;;;14.10;99.90;;;;;;6338409;22;20077;-93
2022/06/12 00:06:43;;;;;;;60.42;8.45;;;14.00;99.90;;;;;;6310812;22;19998;-93
2022/06/12 00:09:11;;;;;;;;;;;14.00;99.90;;;;;;6310531;22;20351;-91
2022/06/12 00:11:37;;;;;;;60.03;9.10;;;14.10;99.90;;;;;;6310325;22;19924;-92
2022/06/12 00:14:07;;;;;;;57.10;9.88;;;14.00;99.90;;;;;;6310563;22;20035;-92
2022/06/12 00:16:34;;;;;;;66.03;10.30;;;14.00;99.90;;;;;;6310332;22;19999;-93
2022/06/12 00:19:06;;;;;;;50.92;9.43;;;14.00;99.90;;;;;;6310406;22;20017;-90
2022/06/12 00:21:59;;;;;;;59.85;9.82;;;14.00;99.90;;;;;;6310228;22;20481;-93
2022/06/12 00:24:27;;;;;;;47.00;9.93;;;13.90;99.90;;;;;;6310223;22;20006;-92
2022/06/12 00:26:59;;;;;;;52.60;9.82;;;14.00;99.90;;;;;;6310870;22;20343;-92
2022/06/12 00:29:32;;;;;;;55.78;9.27;;;14.00;99.90;;;;;;6337519;22;20324;-93
2022/06/12 00:32:02;;;;;;;47.13;10.02;;;14.00;99.90;;;;;;6310241;22;20033;-92
2022/06/12 00:34:42;;;;;;;;;;;;;;;;;;;;;
2022/06/12 00:37:12;;;;;;;55.25;10.93;;;13.90;99.90;;;;;;6337502;22;20078;-91
2022/06/12 00:39:44;;;;;;;58.85;10.75;;;13.90;99.90;;;;;;6336791;22;20009;-93
2022/06/12 00:42:24;;;;;;;53.10;9.85;;;14.00;99.90;;;;;;6337046;22;19999;-93
2022/06/12 00:45:16;;;;;;;49.33;10.85;;;14.10;99.90;;;;;;6338472;22;19995;-91
2022/06/12 00:47:43;;;;;;;66.70;10.68;;;14.10;99.90;;;;;;6336794;22;20451;-93
2022/06/12 00:50:11;;;;;;;49.58;10.90;;;13.90;99.90;;;;;;6309927;22;20006;-90
2022/06/12 00:52:52;;;;;;;61.92;9.95;;;13.90;99.90;;;;;;6310037;22;20003;-92
2022/06/12 00:55:43;;;;;;;58.15;10.40;;;13.90;99.90;;;;;;6337447;22;20485;-92
2022/06/12 00:58:25;;;;;;;51.20;9.95;;;13.80;99.90;;;;;;6290018;22;20350;-93
2022/06/12 01:00:52;;;;;;;46.38;9.25;;;13.90;99.90;;;;;;6310212;22;20011;-89
2022/06/12 01:03:31;;;;;;;;;;;;;;;;;;;;;
2022/06/12 01:08:44;;;;;;;55.78;10.98;;;13.80;99.90;;;;;;6337150;22;20010;-93
2022/06/12 01:11:15;;;;;;;56.08;10.25;;;13.80;99.90;;;;;;6310186;22;20010;-90
2022/06/12 01:13:44;;;;;;;55.65;9.63;;;13.80;99.90;;;;;;6339207;22;19995;-93
2022/06/12 01:16:28;;;;;;;51.88;9.88;;;13.80;99.90;;;;;;6320250;22;19986;-91
2022/06/12 01:18:59;;;;;;;51.53;8.45;;;13.80;99.90;;;;;;6357465;22;20000;-89
2022/06/12 01:21:39;;;;;;;52.50;9.13;;;13.70;99.90;;;;;;6336018;22;20115;-89
2022/06/12 01:24:46;;;;;;;33.10;7.57;;;13.80;99.90;;;;;;6323820;22;20002;-92
2022/06/12 01:27:22;;;;;;;49.10;8.23;;;13.80;99.90;;;;;;6262323;22;20003;-89
2022/06/12 01:30:13;;;;;;;59.63;8.90;;;13.80;99.90;;;;;;6309215;22;20466;-91
2022/06/12 01:32:58;;;;;;;54.95;10.00;;;13.80;99.90;;;;;;6288007;22;20052;-92
2022/06/12 01:35:46;;;;;;;46.75;8.85;;;13.80;99.90;;;;;;6310030;22;20081;-92
2022/06/12 01:38:20;;;;;;;61.40;9.10;;;13.90;99.90;;;;;;6308919;22;20468;-91
2022/06/12 01:41:29;;;;;;;47.70;7.72;;;13.80;99.90;;;;;;6309061;22;20443;-92
2022/06/12 01:44:13;;;;;;;42.42;7.55;;;13.90;99.90;;;;;;6337546;22;19995;-93
2022/06/12 01:46:52;;;;;;;55.25;8.80;;;13.90;99.90;;;;;;6308710;22;20007;-92
2022/06/12 01:49:36;;;;;;;47.83;9.25;;;13.80;99.90;;;;;;6336548;22;20048;-90
2022/06/12 01:52:22;;;;;;;52.65;9.18;;;13.90;99.90;;;;;;6309317;22;20033;-93
2022/06/12 01:55:10;;;;;;;44.03;9.15;;;13.80;99.90;;;;;;6335933;22;20244;-91
2022/06/12 01:57:46;;;;;;;;;;;13.70;99.90;;;;;;6309222;22;20007;-92
2022/06/12 02:00:21;;;;;;;49.15;8.63;;;13.80;99.90;;;;;;6308558;22;19997;-91
2022/06/12 02:03:28;;;;;;;39.97;8.18;;;13.80;99.90;;;;;;6336623;22;19995;-90
2022/06/12 02:06:27;;;;;;;58.60;8.85;;;13.80;99.90;;;;;;6203269;22;20016;-93
2022/06/12 02:09:28;;;;;;;;;;;;;;;;;;;;;
2022/06/12 02:15:09;;;;;;;39.38;7.40;;;13.80;99.90;;;;;;6336277;22;20013;-89
2022/06/12 02:17:46;;;;;;;46.42;7.85;;;13.70;99.90;;;;;;6336237;22;20003;-93
2022/06/12 02:20:18;;;;;;;40.25;7.38;;;13.60;99.90;;;;;;6336560;22;20052;-93
2022/06/12 02:23:14;;;;;;;46.58;9.57;;;13.60;99.90;;;;;;6308937;22;20431;-91
2022/06/12 02:25:56;;;;;;;;;;;;;;;;;;;;;
2022/06/12 02:28:39;;;;;;;42.45;7.50;;;13.30;99.90;;;;;;6336282;22;20397;-93
2022/06/12 02:31:16;;;;;;;44.45;9.57;;;13.50;99.90;;;;;;6309282;22;20007;-91
2022/06/12 02:33:59;;;;;;;;;;;;;;;;;;;;;
2022/06/12 02:36:36;;;;;;;43.35;9.63;;;13.50;99.90;;;;;;6337566;22;20066;-92
2022/06/12 02:39:15;;;;;;;49.72;10.05;;;13.50;99.90;;;;;;6309155;22;20007;-93
2022/06/12 02:41:58;;;;;;;;;;;;;;;;;;;;;
2022/06/12 02:44:44;;;;;;;46.28;9.43;;;13.50;99.90;;;;;;6336902;22;20527;-92
2022/06/12 02:47:16;;;;;;;37.42;9.02;;;13.50;99.90;;;;;;6335961;22;19998;-89
2022/06/12 02:49:47;;;;;;;54.25;10.90;;;13.50;99.90;;;;;;6308896;22;20435;-88
2022/06/12 02:52:16;;;;;;;51.28;11.07;;;13.40;99.90;;;;;;6307916;22;20010;-92
2022/06/12 02:55:02;;;;;;;51.03;10.77;;;13.40;99.90;;;;;;6308297;22;20002;-92
2022/06/12 02:57:28;;;;;;;51.42;10.32;;;13.30;99.90;;;;;;6337399;22;20211;-91
2022/06/12 03:00:29;;;;;;;;;;;;;;;;;;;;;
2022/06/12 03:03:34;;;;;;;42.45;9.27;;;13.20;99.90;;;;;;6336615;22;20483;-90
2022/06/12 03:06:07;;;;;;;52.50;10.77;;;13.10;99.90;;;;;;6200501;22;20009;-90
2022/06/12 03:08:55;;;;;;;;;;;;;;;;;;;;;
2022/06/12 03:11:55;;;;;;;60.47;10.13;;;13.20;99.90;;;;;;6335883;22;20732;-92
2022/06/12 03:14:25;;;;;;;44.92;9.68;;;13.20;99.90;;;;;;6286822;22;20048;-93
2022/06/12 03:16:54;;;;;;;45.08;9.30;;;13.20;99.90;;;;;;6308046;22;20010;-90
2022/06/12 03:19:30;;;;;;;50.67;9.23;;;13.10;99.90;;;;;;6308094;22;20018;-90
2022/06/12 03:22:36;;;;;;;52.90;9.77;;;13.20;99.90;;;;;;6308181;22;19998;-91
2022/06/12 03:25:19;;;;;;;46.15;8.60;;;13.10;99.90;;;;;;6336054;22;20006;-91
2022/06/12 03:28:14;;;;;;;50.47;9.18;;;13.10;99.90;;;;;;6308992;22;20003;-93
2022/06/12 03:30:56;;;;;;;44.63;8.48;;;13.00;99.90;;;;;;6336142;22;20331;-90
2022/06/12 03:33:50;;;;;;;40.67;8.32;;;13.10;99.90;;;;;;6337061;22;20013;-91
2022/06/12 03:36:27;;;;;;;41.70;8.18;;;13.20;99.90;;;;;;6308695;22;20346;-92
2022/06/12 03:39:44;;;;;;;44.58;9.10;;;13.10;99.90;;;;;;6308458;22;19999;-91
2022/06/12 03:42:38;;;;;;;45.05;8.63;;;13.10;99.90;;;;;;6308593;22;20007;-90
2022/06/12 03:49:02;;;;;;;;;;;;;;;;;;;;;
2022/06/12 03:51:52;;;;;;;;;;;;;;;;;;;;;
2022/06/12 03:54:31;;;;;;;34.45;7.45;;;13.20;99.90;;;;;;6338858;22;20050;-93
2022/06/12 04:00:20;;;;;;;31.27;7.18;;;13.30;99.90;;;;;;6355325;22;19950;-89
2022/06/12 04:03:47;;;;;;;37.78;8.80;;;13.20;99.90;;;;;;6326611;22;20335;-90
2022/06/12 04:06:30;;;;;;;47.40;8.85;;;13.20;99.90;;;;;;6295949;22;20443;-90
2022/06/12 04:09:13;;;;;;;;;;;;;;;;;;;;;
2022/06/12 04:11:46;;;;;;;39.47;8.32;;;13.10;99.90;;;;;;6334969;22;20070;-89
2022/06/12 04:14:36;;;;;;;;;;;;;;;;;;;;;
2022/06/12 04:17:06;;;;;;;46.80;8.57;;;13.00;99.90;;;;;;6336584;22;20067;-93
2022/06/12 04:20:08;;;;;;;;;;;;;;;;;;;;;
2022/06/12 04:22:37;;;;;;;38.47;8.30;;;13.00;99.90;;;;;;6324675;22;19994;-90
2022/06/12 04:25:24;;;;;;;36.88;8.50;;;13.00;99.90;;;;;;6311205;22;20053;-92
2022/06/12 04:28:00;;;;;;;45.60;9.20;;;12.90;99.90;;;;;;6336691;22;20080;-90
2022/06/12 04:30:37;;;;;;;28.48;7.90;;;12.90;99.90;;;;;;6336133;22;20003;-92
2022/06/12 04:33:27;;;;;;;41.70;9.38;;;12.90;99.90;;;;;;6337452;22;19995;-90
2022/06/12 04:35:57;;;;;;;36.47;8.15;;;12.80;99.90;;;;;;6336430;22;20009;-92
2022/06/12 04:38:48;;;;;;;36.70;8.55;;;12.80;99.90;;;;;;6336395;22;20003;-92
2022/06/12 04:41:30;;;;;;;42.25;10.10;;;12.70;99.90;;;;;;6334708;22;20007;-90
2022/06/12 04:43:56;;;;;;;56.28;9.45;;;12.80;99.90;;;;;;6308586;22;20003;-92
2022/06/12 04:46:25;;;;;;;41.47;9.52;;;12.80;99.90;;;;;;6335884;22;20040;-92
2022/06/12 04:49:06;;;;;;;;;;;;;;;;;;;;;
2022/06/12 04:51:41;;;;;;;36.67;8.55;;;12.80;99.90;;;;;;6336461;22;20069;-90
2022/06/12 04:54:07;;;;;;;41.65;9.52;;;12.90;99.90;;;;;;6309275;22;20007;-90
2022/06/12 04:56:36;;;;;;;35.25;7.93;;;12.90;99.90;;;;;;6310024;22;20060;-91
2022/06/12 04:59:06;;;;;;;39.97;9.15;;;12.90;99.90;;;;;;6308628;22;20458;-91
2022/06/12 05:01:35;;;;;;;42.38;9.02;;;12.80;99.90;;;;;;6336435;22;19999;-89
2022/06/12 05:04:11;;;;;;;47.83;10.50;;;12.80;99.90;;;;;;6308326;22;20025;-92
2022/06/12 05:06:53;;;;;;;34.17;8.70;;;12.40;99.90;;;;;;6308881;22;20431;-91
2022/06/12 05:09:27;;;;;;;42.65;9.80;;;12.80;99.90;;;;;;6336357;22;19999;-90
2022/06/12 05:11:57;;;;;;;38.65;8.55;;;12.80;99.90;;;;;;6335946;22;19998;-94
2022/06/12 05:14:22;;;;;;;51.15;12.18;;;12.90;99.90;;;;;;6308942;22;19998;-93
2022/06/12 05:17:12;;;;;;;43.97;10.23;;;13.00;99.90;;;;;;6308141;22;20010;-92
2022/06/12 05:19:50;;;;;;;;;;;;;;;;;;;;;
2022/06/12 05:22:21;;;;;;;33.13;11.18;;;12.90;99.90;;;;;;6335982;22;20078;-93
2022/06/12 05:25:05;;;;;;;41.50;10.57;;;12.90;99.90;;;;;;6308421;22;20008;-92
2022/06/12 05:27:33;;;;;;;36.92;10.15;;;13.00;99.90;;;;;;6335890;22;19995;-93
2022/06/12 05:30:06;;;;;;;51.88;11.88;;;13.00;99.90;;;;;;6308097;22;20266;-93
2022/06/12 05:32:38;;;;;;;56.78;11.57;;;13.00;99.90;;;;;;6308177;22;20025;-92
2022/06/12 05:35:21;;;;;;;;;;;;;;;;;;;;;
2022/06/12 05:37:51;;;;;;;42.90;10.93;;;13.00;99.90;;;;;;6335978;22;20081;-93
2022/06/12 05:40:26;;;;;;;34.53;8.90;;;12.90;99.90;;;;;;6308665;22;20011;-92
2022/06/12 05:42:54;;;;;;;55.40;11.45;;;13.00;99.90;;;;;;6308311;22;19999;-93
2022/06/12 05:45:25;;;;;;;45.80;11.15;;;13.30;99.90;;;;;;6308507;22;20007;-92
2022/06/12 05:48:06;;;;;;;45.13;10.25;;;12.90;99.90;;;;;;6335756;22;20043;-94
2022/06/12 05:50:44;;;;;;;43.58;10.75;;;13.00;99.90;;;;;;6308366;22;20003;-91
2022/06/12 05:53:41;;;;;;;;;;;;;;;;;;;;;
2022/06/12 05:56:41;;;;;;;;;;;;;;;;;;;;;
2022/06/12 06:08:28;;;;;;;;;;;;;;;;;;;;;
2022/06/12 06:15:13;;;;;;;45.75;11.50;;;13.50;99.90;;;;;;6314227;22;20522;-92
2022/06/12 06:17:45;;;;;;;48.42;10.35;;;13.60;99.90;;;;;;6335941;22;20009;-92
2022/06/12 06:20:19;;;;;;;44.50;10.63;;;13.60;99.90;;;;;;6309389;22;20034;-90
2022/06/12 06:23:15;;;;;;;49.47;10.73;;;13.70;99.90;;;;;;6309682;22;20006;-91
2022/06/12 06:25:55;;;;;;;48.00;9.43;;;13.90;99.90;;;;;;6337192;22;20006;-93
2022/06/12 06:28:39;;;;;;;44.05;10.43;;;14.00;99.90;;;;;;6308903;22;20006;-91
2022/06/12 06:31:13;;;;;;;51.78;11.10;;;14.10;99.90;;;;;;6337129;22;20074;-92
2022/06/12 06:34:02;;;;;;;47.85;10.27;;;14.30;99.90;;;;;;6317326;22;19991;-91
2022/06/12 06:36:29;;;;;;;;;;;14.40;99.90;;;;;;6356835;22;20038;-90
2022/06/12 06:38:59;;;;;;;58.58;10.75;;;14.30;99.90;;;;;;6330402;22;19943;-89
2022/06/12 06:41:25;;;;;;;51.10;11.32;;;14.30;99.90;;;;;;6351311;22;20006;-91
2022/06/12 06:46:44;;;;;;;52.97;10.77;;;14.40;99.90;;;;;;6336333;22;20010;-90
2022/06/12 06:49:09;;;;;;;65.35;10.50;;;14.40;99.90;;;;;;6337265;22;19998;-91
2022/06/12 06:51:37;;;;;;;44.35;9.93;;;14.50;99.90;;;;;;6307517;22;20032;-90
2022/06/12 06:54:06;;;;;;;65.03;10.85;;;14.50;99.90;;;;;;6307020;22;19998;-91
2022/06/12 06:56:31;;;;;;;;;;;14.60;99.90;;;;;;6335979;22;19999;-89
2022/06/12 06:58:57;;;;;;;61.05;10.80;;;14.70;99.90;;;;;;6307841;22;19905;-92
2022/06/12 07:01:23;;;;;;;58.80;10.00;;;14.80;99.90;;;;;;6307329;22;20011;-90
2022/06/12 07:03:52;;;;;;;51.55;10.07;;;14.80;99.90;;;;;;6336295;22;19998;-90
2022/06/12 07:06:19;;;;;;;69.18;9.93;;;14.80;99.90;;;;;;6338447;22;20455;-95
2022/06/12 07:08:52;;;;;;;51.47;9.23;;;15.00;99.90;;;;;;6336052;22;19995;-91
2022/06/12 07:11:21;;;;;;;55.83;9.80;;;15.10;99.90;;;;;;6310503;22;20007;-93
2022/06/12 07:13:51;;;;;;;68.93;9.52;;;15.00;99.90;;;;;;6349467;22;19999;-89
2022/06/12 07:16:23;;;;;;;56.90;10.20;;;15.20;99.90;;;;;;6309932;22;19999;-92
2022/06/12 07:19:09;;;;;;;55.63;9.63;;;15.40;99.90;;;;;;6308110;22;20081;-89
2022/06/12 07:21:38;;;;;;;45.90;8.77;;;15.20;99.90;;;;;;6307652;22;20331;-89
2022/06/12 07:24:04;;;;;;;56.33;9.70;;;15.40;99.90;;;;;;6307361;22;19999;-90
2022/06/12 07:26:36;;;;;;;58.42;8.75;;;15.50;99.90;;;;;;6307973;22;20009;-91
2022/06/12 07:29:10;;;;;;;37.60;8.57;;;15.50;99.90;;;;;;6307374;22;20052;-90
2022/06/12 07:31:36;;;;;;;55.80;8.35;;;15.70;99.90;;;;;;6335214;22;20339;-90
2022/06/12 07:34:12;;;;;;;49.63;8.38;;;15.90;99.90;;;;;;6307162;22;20007;-90
2022/06/12 07:36:40;;;;;;;44.67;8.40;;;16.10;99.90;;;;;;6307840;22;20418;-91
2022/06/12 07:39:11;;;;;;;51.75;8.77;;;16.10;99.90;;;;;;6307219;22;20186;-92
2022/06/12 07:41:47;;;;;;;;;;;;;;;;;;;;;
2022/06/12 07:44:20;;;;;;;51.05;9.00;;;16.10;99.90;;;;;;6335882;22;20070;-93
2022/06/12 07:46:57;;;;;;;52.33;9.25;;;16.30;99.90;;;;;;6336052;22;20003;-91
2022/06/12 07:49:25;;;;;;;49.65;10.13;;;16.30;99.90;;;;;;6307162;22;20003;-93
2022/06/12 07:52:04;;;;;;;;;;;;;;;;;;;;;
2022/06/12 07:54:30;;;;;;;50.38;8.32;;;16.30;99.90;;;;;;6336692;22;20089;-93
2022/06/12 07:56:57;;;;;;;44.78;8.45;;;16.30;99.90;;;;;;6309163;22;20026;-92
2022/06/12 07:59:25;;;;;;;60.20;9.50;;;16.30;99.90;;;;;;6309072;22;20072;-89
2022/06/12 08:01:58;;;;;;;;;;;16.40;99.90;;;;;;6309848;22;20007;-92
2022/06/12 08:04:27;;;;;;;46.65;8.25;;;16.50;99.90;;;;;;6337252;22;19905;-92
2022/06/12 08:06:58;;;;;;;45.85;9.27;;;16.50;99.90;;;;;;6309059;22;20003;-92
2022/06/12 08:09:27;;;;;;;47.45;8.15;;;16.70;99.90;;;;;;6309114;22;20003;-91
2022/06/12 08:11:56;;;;;;;45.53;8.85;;;16.90;99.90;;;;;;6336525;22;20002;-89
2022/06/12 08:14:23;;;;;;;36.17;8.07;;;17.00;99.90;;;;;;6308898;22;20009;-90
2022/06/12 08:16:52;;;;;;;47.53;9.15;;;17.10;99.90;;;;;;6309112;22;20007;-91
2022/06/12 08:22:12;;;;;;;47.00;8.43;;;16.60;99.90;;;;;;6336216;22;20018;-92
2022/06/12 08:24:38;;;;;;;36.75;7.53;;;16.40;99.90;;;;;;6309824;22;20010;-90
2022/06/12 08:27:07;;;;;;;61.47;8.18;;;16.60;99.90;;;;;;6336477;22;19998;-92
2022/06/12 08:29:32;;;;;;;36.70;7.35;;;16.50;99.90;;;;;;6308987;22;20061;-93
2022/06/12 08:32:17;;;;;;;36.22;6.38;;;16.60;99.90;;;;;;6336331;22;20023;-91
2022/06/12 08:34:51;;;;;;;44.50;7.40;;;16.70;99.90;;;;;;6308569;22;20002;-90
2022/06/12 08:37:21;;;;;;;35.03;6.78;;;16.80;99.90;;;;;;6309482;22;20339;-91
2022/06/12 08:39:47;;;;;;;40.53;6.63;;;16.30;99.90;;;;;;6309536;22;20015;-91
2022/06/12 08:42:22;;;;;;;46.17;8.63;;;16.60;99.90;;;;;;6308855;22;20454;-90
2022/06/12 08:45:01;;;;;;;35.03;6.65;;;16.90;99.90;;;;;;6309353;22;20081;-92
2022/06/12 08:47:58;;;;;;;40.00;7.13;;;17.30;99.90;;;;;;6336404;22;20041;-92
2022/06/12 08:50:37;;;;;;;33.33;6.67;;;16.70;99.90;;;;;;6308713;22;19999;-89
2022/06/12 08:53:17;;;;;;;46.13;7.88;;;17.30;99.90;;;;;;6336387;22;20348;-91
2022/06/12 08:55:53;;;;;;;36.92;6.72;;;17.70;99.90;;;;;;6308893;22;20003;-89
2022/06/12 08:58:39;;;;;;;40.58;7.93;;;17.50;99.90;;;;;;6309435;22;20003;-91
2022/06/12 09:01:14;;;;;;;37.95;7.05;;;17.60;99.90;;;;;;6308631;22;20021;-92
2022/06/12 09:03:48;;;;;;;46.10;7.05;;;17.50;99.90;;;;;;6308579;22;20003;-92
2022/06/12 09:06:30;;;;;;;35.38;6.75;;;17.30;99.90;;;;;;6308810;22;20049;-93
2022/06/12 09:09:04;;;;;;;34.28;7.30;;;17.30;99.90;;;;;;6337311;22;20513;-90
2022/06/12 09:11:40;;;;;;;44.42;6.80;;;17.10;99.90;;;;;;6348277;22;19991;-89
2022/06/12 09:14:32;;;;;;;44.28;6.25;;;17.20;99.90;;;;;;6332737;22;20002;-89
2022/06/12 09:17:13;;;;;;;29.05;6.60;;;16.90;99.90;;;;;;6329064;22;20011;-88
2022/06/12 09:20:09;;;;;;;28.98;6.60;;;17.00;99.90;;;;;;6343271;22;20022;-91
2022/06/12 09:22:41;;;;;;;33.53;5.95;;;17.40;99.90;;;;;;6337770;22;20030;-90
2022/06/12 09:25:22;;;;;;;32.83;6.55;;;17.70;99.90;;;;;;6335966;22;19998;-92
2022/06/12 09:28:13;;;;;;;27.48;5.93;;;17.80;99.90;;;;;;6336923;22;20007;-92
2022/06/12 09:31:10;;;;;;;32.03;6.05;;;17.90;99.90;;;;;;6335968;22;20025;-91
2022/06/12 09:33:50;;;;;;;20.55;4.70;;;18.50;99.90;;;;;;6335719;22;20002;-92
2022/06/12 09:36:54;;;;;;;24.50;5.80;;;18.20;99.90;;;;;;6335601;22;19994;-90
2022/06/12 09:39:40;;;;;;;29.15;5.47;;;18.20;99.90;;;;;;6254040;22;20075;-90
2022/06/12 09:42:20;;;;;;;32.55;5.97;;;18.00;99.90;;;;;;6307867;22;20346;-89
2022/06/12 09:45:03;;;;;;;31.38;5.78;;;18.10;99.90;;;;;;6308207;22;20031;-93
2022/06/12 09:47:44;;;;;;;30.88;5.80;;;17.90;99.90;;;;;;6336018;22;20009;-89
2022/06/12 09:50:16;;;;;;;34.47;5.72;;;18.60;99.90;;;;;;6308172;22;20003;-93
2022/06/12 09:52:53;;;;;;;23.92;4.90;;;18.40;99.90;;;;;;6336315;22;19999;-90
2022/06/12 09:55:38;;;;;;;23.85;4.90;;;18.40;99.90;;;;;;6309610;22;19999;-93
2022/06/12 09:58:15;;;;;;;21.58;5.15;;;18.30;99.90;;;;;;6309577;22;20007;-94
2022/06/12 10:00:53;;;;;;;23.35;5.47;;;18.30;99.90;;;;;;6336581;22;20014;-90
2022/06/12 10:03:39;;;;;;;27.55;5.30;;;18.70;99.90;;;;;;6308830;22;19998;-92
2022/06/12 10:06:24;;;;;;;30.92;6.50;;;18.70;99.90;;;;;;6337881;22;19999;-92
2022/06/12 10:09:04;;;;;;;40.05;5.43;;;18.90;99.90;;;;;;6338659;22;20342;-93
2022/06/12 10:11:39;;;;;;;28.20;4.93;;;19.00;99.90;;;;;;6309087;22;20013;-91
2022/06/12 10:14:27;;;;;;;25.23;5.57;;;18.90;99.90;;;;;;6308609;22;20057;-90
2022/06/12 10:17:01;;;;;;;17.60;4.75;;;18.60;99.90;;;;;;6338429;22;20026;-93
2022/06/12 10:19:35;;;;;;;23.42;4.43;;;19.00;99.90;;;;;;6307270;22;20006;-86
2022/06/12 10:22:07;;;;;;;23.88;4.85;;;19.00;99.90;;;;;;6306191;22;20440;-92
2022/06/12 10:24:33;;;;;;;28.90;5.10;;;18.90;99.90;;;;;;6334107;22;20002;-90
2022/06/12 10:27:03;;;;;;;30.10;5.05;;;19.20;99.90;;;;;;6307199;22;20044;-91
2022/06/12 10:29:51;;;;;;;29.25;4.95;;;19.10;99.90;;;;;;6332771;22;20010;-88
2022/06/12 10:32:23;;;;;;;34.50;4.72;;;19.10;99.90;;;;;;6333072;22;20431;-89
2022/06/12 10:34:49;;;;;;;23.55;4.78;;;19.20;99.90;;;;;;6333808;22;20489;-86
2022/06/12 10:37:19;;;;;;;21.27;5.20;;;19.20;99.90;;;;;;6332537;22;19998;-91
2022/06/12 10:39:45;;;;;;;28.95;7.25;;;19.20;99.90;;;;;;6304688;22;20253;-88
2022/06/12 10:42:43;;;;;;;45.60;16.20;;;18.90;99.90;;;;;;6332754;22;20473;-90
2022/06/12 10:45:19;;;;;;;31.73;12.45;;;19.10;99.90;;;;;;6270357;22;20003;-87
2022/06/12 10:47:46;;;;;;;29.65;5.07;;;19.30;99.90;;;;;;6332691;22;20275;-90
2022/06/12 10:50:24;;;;;;;39.30;13.48;;;19.30;99.90;;;;;;6332572;22;20013;-89
2022/06/12 10:53:08;;;;;;;19.48;4.55;;;19.50;99.90;;;;;;6333308;22;20126;-88
2022/06/12 10:55:57;;;;;;;46.35;15.60;;;19.60;99.90;;;;;;6332389;22;20465;-90
2022/06/12 10:58:40;;;;;;;54.28;21.02;;;19.80;97.30;;;;;;6334202;22;19998;-87
2022/06/12 11:01:31;;;;;;;27.15;5.30;;;19.60;97.50;;;;;;6334430;22;20502;-89
2022/06/12 11:04:18;;;;;;;18.27;4.55;;;19.50;99.90;;;;;;6306847;22;19995;-89
2022/06/12 11:07:09;;;;;;;22.58;5.03;;;19.50;99.60;;;;;;6306209;22;20009;-91
2022/06/12 11:09:41;;;;;;;20.20;6.60;;;19.40;99.90;;;;;;6334595;22;20026;-91
2022/06/12 11:12:47;;;;;;;27.90;6.80;;;19.80;99.90;;;;;;6306637;22;20481;-88
2022/06/12 11:15:29;;;;;;;35.90;8.82;;;19.90;99.90;;;;;;6306815;22;20007;-91
2022/06/12 11:18:14;;;;;;;24.48;5.28;;;20.20;98.40;;;;;;6335518;22;20014;-92
2022/06/12 11:20:43;;;;;;;21.38;4.45;;;20.10;95.00;;;;;;6333546;22;20014;-92
2022/06/12 11:23:39;;;;;;;20.77;5.22;;;20.00;96.30;;;;;;6333251;22;20010;-89
2022/06/12 11:26:26;;;;;;;22.77;4.05;;;19.90;98.80;;;;;;6306590;22;20013;-88
2022/06/12 11:29:10;;;;;;;20.92;4.30;;;19.90;98.70;;;;;;6307353;22;20003;-91
2022/06/12 11:32:00;;;;;;;22.58;4.57;;;20.10;99.90;;;;;;6334157;22;20399;-93
2022/06/12 11:34:42;;;;;;;25.05;4.43;;;20.30;98.80;;;;;;6335614;22;19999;-89
2022/06/12 11:37:08;;;;;;;29.45;5.15;;;20.40;99.90;;;;;;6305106;22;20520;-89
2022/06/12 11:39:43;;;;;;;18.20;4.95;;;20.30;98.20;;;;;;6306607;22;20011;-91
2022/06/12 11:42:51;;;;;;;24.55;4.90;;;19.90;98.10;;;;;;6333970;22;20047;-87
2022/06/12 11:45:32;;;;;;;18.52;4.10;;;20.10;99.10;;;;;;6313731;22;20006;-92
2022/06/12 11:48:16;;;;;;;22.70;4.60;;;20.10;97.60;;;;;;6307554;22;20443;-90
2022/06/12 11:51:07;;;;;;;21.88;4.65;;;20.30;98.00;;;;;;6307178;22;20086;-90
2022/06/12 11:53:48;;;;;;;35.47;8.43;;;20.40;95.00;;;;;;6335002;22;20026;-90
2022/06/12 11:56:16;;;;;;;24.33;3.80;;;20.40;99.90;;;;;;6335014;22;20040;-92
2022/06/12 11:59:21;;;;;;;19.05;4.38;;;20.20;96.10;;;;;;6306530;22;20435;-93
2022/06/12 12:02:10;;;;;;;22.08;3.92;;;20.20;92.60;;;;;;6254420;22;20007;-91
2022/06/12 12:05:05;;;;;;;21.75;5.20;;;20.10;98.10;;;;;;6332816;22;20435;-88
2022/06/12 12:07:52;;;;;;;24.80;4.60;;;20.40;91.70;;;;;;6254689;22;20078;-91
2022/06/12 12:10:36;;;;;;;16.25;4.25;;;20.30;97.50;;;;;;6333133;22;20311;-89
2022/06/12 12:13:09;;;;;;;21.52;4.32;;;20.40;95.40;;;;;;6304491;22;20032;-92
2022/06/12 12:15:44;;;;;;;18.33;4.38;;;20.50;95.10;;;;;;6333250;22;19995;-92
2022/06/12 12:18:32;;;;;;;16.15;3.85;;;20.60;99.10;;;;;;6305912;22;20045;-89
2022/06/12 12:21:00;;;;;;;19.73;4.60;;;20.60;96.30;;;;;;6333216;22;20019;-88
2022/06/12 12:23:39;;;;;;;26.87;4.87;;;20.50;97.70;;;;;;6306152;22;20514;-91
2022/06/12 12:26:24;;;;;;;24.30;4.80;;;20.60;93.70;;;;;;6308700;22;20010;-88
2022/06/12 12:28:54;;;;;;;23.20;4.72;;;21.00;96.70;;;;;;6330375;22;20002;-88
2022/06/12 12:31:21;;;;;;;25.80;4.45;;;20.50;93.10;;;;;;6327503;22;20078;-86
2022/06/12 12:33:49;;;;;;;26.73;4.70;;;20.10;94.40;;;;;;6328452;22;20456;-87
2022/06/12 12:42:26;;;;;;;17.05;4.03;;;20.60;95.90;;;;;;6331227;22;20508;-88
2022/06/12 12:44:53;;;;;;;21.33;4.22;;;20.60;97.20;;;;;;6306926;22;20022;-90
2022/06/12 12:47:28;;;;;;;15.65;4.00;;;20.70;92.90;;;;;;6306521;22;20006;-95
2022/06/12 12:50:19;;;;;;;22.27;3.80;;;20.90;97.00;;;;;;6334207;22;20037;-92
2022/06/12 12:52:51;;;;;;;20.00;4.22;;;20.50;92.60;;;;;;6305110;22;20082;-88
2022/06/12 12:55:42;;;;;;;20.65;3.95;;;20.90;91.30;;;;;;6304803;22;20006;-89
2022/06/12 12:58:37;;;;;;;12.55;3.65;;;19.90;93.80;;;;;;6304980;22;20007;-89
2022/06/12 13:01:19;;;;;;;18.58;4.18;;;20.50;91.70;;;;;;6300208;22;20474;-88
2022/06/12 13:03:49;;;;;;;19.65;3.88;;;20.60;93.60;;;;;;6303712;22;20756;-91
2022/06/12 13:06:25;;;;;;;11.82;3.13;;;20.90;91.10;;;;;;6304865;22;20007;-90
2022/06/12 13:09:09;;;;;;;15.48;3.50;;;20.80;90.50;;;;;;6304728;22;19999;-91
2022/06/12 13:12:01;;;;;;;14.48;4.05;;;20.80;90.00;;;;;;6304512;22;20063;-89
2022/06/12 13:14:42;;;;;;;16.38;3.47;;;20.70;84.80;;;;;;6333275;22;20005;-90
2022/06/12 13:17:41;;;;;;;20.33;3.72;;;20.60;92.10;;;;;;6304767;22;20006;-90
2022/06/12 13:20:39;;;;;;;24.55;4.25;;;20.70;90.20;;;;;;6281268;22;20030;-91
2022/06/12 13:23:25;;;;;;;10.73;3.55;;;20.60;85.20;;;;;;6304400;22;20006;-91
2022/06/12 13:25:56;;;;;;;17.88;3.70;;;20.90;86.70;;;;;;6331604;22;20007;-90
2022/06/12 13:28:25;;;;;;;15.45;3.40;;;20.70;85.60;;;;;;6304009;22;20006;-91
2022/06/12 13:30:52;;;;;;;11.57;4.05;;;20.70;86.30;;;;;;6304893;22;20085;-91
2022/06/12 13:33:28;;;;;;;15.32;3.38;;;21.10;86.20;;;;;;6306965;22;20006;-89
2022/06/12 13:36:01;;;;;;;11.25;3.25;;;21.20;84.10;;;;;;6307856;22;20374;-88
2022/06/12 13:38:30;;;;;;;14.02;3.90;;;21.00;82.80;;;;;;6307759;22;20379;-89
2022/06/12 13:41:31;;;;;;;11.30;3.67;;;21.00;86.60;;;;;;6307332;22;20015;-89
2022/06/12 13:43:57;;;;;;;11.57;2.92;;;21.00;79.50;;;;;;6335886;22;20049;-87
2022/06/12 13:46:32;;;;;;;14.40;3.20;;;20.90;76.00;;;;;;6334832;22;19999;-90
2022/06/12 13:49:00;;;;;;;22.30;3.60;;;20.90;81.80;;;;;;6336789;22;20006;-90
2022/06/12 13:51:29;;;;;;;10.57;2.63;;;20.90;88.80;;;;;;6335352;22;20070;-90
2022/06/12 13:54:22;;;;;;;14.07;3.15;;;21.20;75.30;;;;;;6306672;22;20002;-89
2022/06/12 13:56:56;;;;;;;11.43;2.90;;;20.60;80.40;;;;;;6314989;22;20077;-90
2022/06/12 13:59:45;;;;;;;12.10;2.88;;;21.10;79.00;;;;;;6334397;22;20109;-92
2022/06/12 14:02:24;;;;;;;17.10;3.35;;;21.00;76.00;;;;;;6328933;22;20549;-90
2022/06/12 14:04:54;;;;;;;18.85;3.42;;;21.00;80.40;;;;;;6302734;22;20013;-92
2022/06/12 14:07:21;;;;;;;11.13;3.20;;;21.30;77.90;;;;;;6331541;22;20400;-91
2022/06/12 14:09:51;;;;;;;17.92;3.38;;;21.20;81.20;;;;;;6325471;22;20052;-92
2022/06/12 14:12:17;;;;;;;14.23;3.17;;;21.50;82.70;;;;;;6329188;22;20344;-90
2022/06/12 14:14:48;;;;;;;13.50;3.35;;;21.50;78.80;;;;;;6329375;22;20002;-91
2022/06/12 14:17:25;;;;;;;9.80;2.75;;;21.50;80.90;;;;;;6329593;22;20035;-91
2022/06/12 14:20:13;;;;;;;12.88;3.30;;;21.60;79.10;;;;;;6301847;22;20055;-91
2022/06/12 14:22:45;;;;;;;11.68;2.75;;;21.40;73.90;;;;;;6329323;22;19999;-92
2022/06/12 14:25:16;;;;;;;12.27;2.95;;;21.10;75.60;;;;;;6329061;22;19998;-87
2022/06/12 14:28:13;;;;;;;14.57;2.95;;;21.30;74.00;;;;;;6330559;22;20006;-91
2022/06/12 14:30:49;;;;;;;14.18;3.35;;;21.20;79.80;;;;;;6310902;22;19999;-92
2022/06/12 14:33:46;;;;;;;16.48;3.03;;;21.30;77.40;;;;;;6305129;22;20334;-93
2022/06/12 14:36:30;;;;;;;11.48;2.88;;;21.20;76.00;;;;;;6253673;22;19999;-95
2022/06/12 14:38:56;;;;;;;10.32;3.05;;;21.00;73.40;;;;;;6305472;22;20056;-90
2022/06/12 14:41:26;;;;;;;8.50;2.53;;;20.80;71.40;;;;;;6332060;22;20007;-88